EKRK/RKE METAR and TAF weather

Enter ICAO airport designator
Station Type Date Time Source
EKRK METAR 2022/11/26 09:20 UTC NOAA

EKRK 260920Z AUTO 20002KT 5000 SCT002/// OVC017/// 07/06 Q1026


Station Type Date Time Source
EKRK Decoded METAR 2022/11/26 09:20 UTC NOAA

Koebenhavn / Roskilde, Denmark (EKRK) 55-35N 012-08E 44M
Nov 26, 2022 - 04:20 AM EST / 2022.11.26 0920 UTC
Wind: from the SSW (200 degrees) at 2 MPH (2 KT):0
Visibility: 3 mile(s):0
Sky conditions: overcast
Temperature: 44 F (7 C)
Dew Point: 42 F (6 C)
Relative Humidity: 93%
Pressure (altimeter): 30.30 in. Hg (1026 hPa)
ob: EKRK 260920Z AUTO 20002KT 5000 SCT002/// OVC017/// 07/06 Q1026
cycle: 9

Station Type Date Time Source
EKRK TAF 2020/10/13 06:33 UTC NOAA

TAF EKRK 130526Z 1306/1415 09004KT 0200 FG VV001
TEMPO 1306/1307 6000 NSW NSC
BECMG 1307/1309 9999 NSW FEW020

Example: see airport list